createdAt,value
2023-03-11T00:00:51.747Z,98392.06
2023-03-11T00:03:54.602Z,98386.09
2023-03-11T00:07:00.025Z,98384.72
2023-03-11T00:10:04.729Z,98379.19
2023-03-11T00:13:08.503Z,98379.56
2023-03-11T00:16:11.401Z,98373.38
2023-03-11T00:19:14.209Z,98366.38
2023-03-11T00:22:17.014Z,98361.84
2023-03-11T00:25:24.509Z,98364.19
2023-03-11T00:28:27.582Z,98357.00
2023-03-11T00:31:32.769Z,98338.19
2023-03-11T00:34:35.512Z,98334.31
2023-03-11T00:37:38.325Z,98331.00
2023-03-11T00:40:43.943Z,98337.56
2023-03-11T00:43:49.105Z,98322.69
2023-03-11T00:46:51.929Z,98306.69
2023-03-11T00:49:55.841Z,98314.06
2023-03-11T00:53:00.394Z,98308.72
2023-03-11T00:56:09.198Z,98315.06
2023-03-11T00:59:11.965Z,98309.44
2023-03-11T01:02:14.763Z,98300.78
2023-03-11T01:05:19.322Z,98304.91
2023-03-11T01:08:22.170Z,98300.13
2023-03-11T01:11:27.293Z,98290.09
2023-03-11T01:14:32.474Z,98279.59
2023-03-11T01:17:35.242Z,98281.25
2023-03-11T01:20:39.067Z,98275.72
2023-03-11T01:23:41.998Z,98279.41
2023-03-11T01:26:46.184Z,98275.72
2023-03-11T01:29:48.906Z,98271.72
2023-03-11T01:32:52.435Z,98280.75
2023-03-11T01:35:55.461Z,98272.72
2023-03-11T01:38:58.342Z,98281.13
2023-03-11T01:42:02.443Z,98281.13
2023-03-11T01:45:26.037Z,98270.16
2023-03-11T01:48:29.022Z,98267.28
2023-03-11T01:51:33.667Z,98268.50
2023-03-11T01:54:38.817Z,98267.84
2023-03-11T01:57:43.732Z,98262.13
2023-03-11T02:00:51.186Z,98250.25
2023-03-11T02:03:54.654Z,98252.47
2023-03-11T02:06:57.926Z,98255.59
2023-03-11T02:10:00.694Z,98256.97
2023-03-11T02:13:07.102Z,98259.66
2023-03-11T02:16:10.365Z,98245.28
2023-03-11T02:19:19.642Z,98256.97
2023-03-11T02:22:22.544Z,98246.84
2023-03-11T02:25:30.057Z,98236.84
2023-03-11T02:28:36.688Z,98241.31
2023-03-11T02:31:42.837Z,98227.31
2023-03-11T02:34:45.935Z,98224.03
2023-03-11T02:37:49.330Z,98224.03
2023-03-11T02:40:54.018Z,98219.50
2023-03-11T02:43:59.463Z,98233.88
2023-03-11T02:47:02.550Z,98217.19
2023-03-11T02:50:05.774Z,98209.19
2023-03-11T02:53:08.957Z,98202.19
2023-03-11T02:56:11.644Z,98211.22
2023-03-11T02:59:17.409Z,98202.19
2023-03-11T03:02:20.221Z,98207.72
2023-03-11T03:05:23.426Z,98195.38
2023-03-11T03:08:26.257Z,98198.25
2023-03-11T03:11:29.035Z,98187.56
2023-03-11T03:14:33.200Z,98181.94
2023-03-11T03:17:38.012Z,98170.63
2023-03-11T03:20:40.840Z,98160.97
2023-03-11T03:23:43.653Z,98167.13
2023-03-11T03:26:46.438Z,98157.47
2023-03-11T03:29:50.712Z,98155.63
2023-03-11T03:32:53.628Z,98154.59
2023-03-11T03:35:56.437Z,98164.44
2023-03-11T03:38:59.690Z,98154.13
2023-03-11T03:42:02.541Z,98153.78
2023-03-11T03:45:10.726Z,98158.19
2023-03-11T03:48:14.054Z,98154.31
2023-03-11T03:51:17.324Z,98151.47
2023-03-11T03:54:20.113Z,98163.19
2023-03-11T03:57:22.933Z,98162.84
2023-03-11T04:00:27.282Z,98168.06
2023-03-11T04:03:30.213Z,98148.25
2023-03-11T04:06:32.972Z,98147.06
2023-03-11T04:09:35.879Z,98138.59
2023-03-11T04:12:38.717Z,98123.84
2023-03-11T04:15:42.815Z,98132.59
2023-03-11T04:18:45.610Z,98121.28
2023-03-11T04:21:48.737Z,98113.28
2023-03-11T04:24:51.549Z,98117.13
2023-03-11T04:27:54.333Z,98123.88
2023-03-11T04:30:58.468Z,98129.38
2023-03-11T04:34:01.342Z,98124.44
2023-03-11T04:37:04.160Z,98119.47
2023-03-11T04:40:09.204Z,98128.66
2023-03-11T04:43:11.979Z,98117.34
2023-03-11T04:46:17.480Z,98127.84
2023-03-11T04:49:20.252Z,98120.22
2023-03-11T04:52:23.356Z,98114.38
2023-03-11T04:55:26.137Z,98111.19
2023-03-11T04:58:29.008Z,98116.22
2023-03-11T05:01:33.108Z,98111.88
2023-03-11T05:04:35.925Z,98106.94
2023-03-11T05:07:38.837Z,98095.59
2023-03-11T05:10:42.046Z,98096.59
2023-03-11T05:13:45.096Z,98102.97
2023-03-11T05:16:49.210Z,98110.50
2023-03-11T05:19:53.686Z,98104.34
2023-03-11T05:22:57.324Z,98109.22
2023-03-11T05:26:00.043Z,98091.19
2023-03-11T05:29:05.191Z,98090.72
2023-03-11T05:32:09.531Z,98092.75
2023-03-11T05:35:14.918Z,98101.75
2023-03-11T05:38:17.667Z,98114.28
2023-03-11T05:41:20.483Z,98095.97
2023-03-11T05:44:23.258Z,98095.16
2023-03-11T05:47:27.429Z,98098.81
2023-03-11T05:50:30.245Z,98094.34
2023-03-11T05:53:33.036Z,98096.34
2023-03-11T05:56:35.889Z,98099.00
2023-03-11T05:59:38.667Z,98101.03
2023-03-11T06:02:43.230Z,98098.56
2023-03-11T06:05:46.360Z,98093.56
2023-03-11T06:08:50.321Z,98088.22
2023-03-11T06:11:53.173Z,98084.53
2023-03-11T06:14:55.895Z,98068.72
2023-03-11T06:18:01.016Z,98066.25
2023-03-11T06:21:04.485Z,98073.63
2023-03-11T06:24:07.587Z,98064.59
2023-03-11T06:27:11.359Z,98067.25
2023-03-11T06:30:14.532Z,98066.25
2023-03-11T06:33:19.643Z,98069.94
2023-03-11T06:36:22.812Z,98056.59
2023-03-11T06:39:28.487Z,98056.59
2023-03-11T06:42:31.469Z,98051.25
2023-03-11T06:45:34.339Z,98035.44
2023-03-11T06:48:38.748Z,98042.41
2023-03-11T06:51:41.578Z,98043.59
2023-03-11T06:54:44.354Z,98051.44
2023-03-11T06:57:47.141Z,98028.41
2023-03-11T07:00:49.955Z,98040.78
2023-03-11T07:03:54.117Z,98032.94
2023-03-11T07:06:56.915Z,98019.16
2023-03-11T07:09:59.735Z,98014.34
2023-03-11T07:13:02.549Z,98018.66
2023-03-11T07:16:09.590Z,98011.13
2023-03-11T07:19:14.421Z,98021.63
2023-03-11T07:22:17.780Z,98019.97
2023-03-11T07:25:21.703Z,98020.34
2023-03-11T07:28:24.571Z,98022.00
2023-03-11T07:31:28.470Z,98025.50
2023-03-11T07:34:32.584Z,98020.78
2023-03-11T07:37:36.596Z,98033.31
2023-03-11T07:40:39.339Z,98015.66
2023-03-11T07:43:43.047Z,98022.00
2023-03-11T07:46:48.443Z,98005.31
2023-03-11T07:49:52.607Z,98010.03
2023-03-11T07:52:59.634Z,98001.00
2023-03-11T07:56:05.705Z,98005.31
2023-03-11T07:59:08.455Z,97985.00
2023-03-11T08:02:11.945Z,97983.97
2023-03-11T08:05:16.127Z,97974.72
2023-03-11T08:08:18.911Z,97976.81
2023-03-11T08:11:22.544Z,97969.81
2023-03-11T08:14:25.357Z,97952.97
2023-03-11T08:17:28.198Z,97958.72
2023-03-11T08:20:32.490Z,97963.84
2023-03-11T08:23:35.290Z,97959.53
2023-03-11T08:26:38.044Z,97946.38
2023-03-11T08:29:42.700Z,97927.53
2023-03-11T08:32:45.547Z,97927.31
2023-03-11T08:35:52.188Z,97923.84
2023-03-11T08:38:56.380Z,97923.00
2023-03-11T08:41:59.898Z,97924.66
2023-03-11T08:45:02.675Z,97913.34
2023-03-11T08:48:05.657Z,97916.66
2023-03-11T08:51:12.006Z,97913.34
2023-03-11T08:54:14.926Z,97916.56
2023-03-11T08:57:17.680Z,97913.78
2023-03-11T09:00:26.167Z,97920.16
2023-03-11T09:03:31.857Z,97924.66
2023-03-11T09:06:36.052Z,97920.34
2023-03-11T09:09:38.787Z,97920.97
2023-03-11T09:12:41.641Z,97919.31
2023-03-11T09:15:44.484Z,97915.91
2023-03-11T09:18:49.659Z,97909.34
2023-03-11T09:21:53.764Z,97917.97
2023-03-11T09:24:59.255Z,97908.84
2023-03-11T09:28:02.116Z,97920.28
2023-03-11T09:31:05.227Z,97919.00
2023-03-11T09:34:08.063Z,97919.63
2023-03-11T09:37:12.220Z,97907.91
2023-03-11T09:40:16.658Z,97907.97
2023-03-11T09:43:29.659Z,97896.91
2023-03-11T09:46:50.485Z,97901.50
2023-03-11T09:50:04.796Z,97890.22
2023-03-11T09:53:18.993Z,97887.19
2023-03-11T09:56:24.306Z,97880.91
2023-03-11T09:59:30.969Z,97875.41
2023-03-11T10:02:34.024Z,97879.06
2023-03-11T10:05:37.596Z,97873.31
2023-03-11T10:08:44.276Z,97866.31
2023-03-11T10:11:52.441Z,97864.06
2023-03-11T10:15:05.942Z,97855.00
2023-03-11T10:18:23.560Z,97853.69
2023-03-11T10:21:36.102Z,97837.59
2023-03-11T10:24:51.555Z,97838.63
2023-03-11T10:27:57.816Z,97830.63
2023-03-11T10:31:03.784Z,97827.69
2023-03-11T10:34:15.677Z,97828.53
2023-03-11T10:37:21.037Z,97822.34
2023-03-11T10:40:27.942Z,97821.94
2023-03-11T10:43:35.161Z,97813.66
2023-03-11T10:46:42.479Z,97809.16
2023-03-11T10:49:45.355Z,97801.75
2023-03-11T10:53:02.998Z,97798.00
2023-03-11T10:56:09.454Z,97795.94
2023-03-11T10:59:23.916Z,97775.16
2023-03-11T11:02:28.088Z,97752.34
2023-03-11T11:05:32.864Z,97760.56
2023-03-11T11:08:35.650Z,97744.13
2023-03-11T11:11:40.024Z,97731.59
2023-03-11T11:14:46.685Z,97732.00
2023-03-11T11:17:50.686Z,97711.47
2023-03-11T11:20:56.052Z,97710.84
2023-03-11T11:24:07.720Z,97712.03
2023-03-11T11:27:16.758Z,97715.72
2023-03-11T11:30:20.012Z,97706.69
2023-03-11T11:33:25.964Z,97707.66
2023-03-11T11:36:35.753Z,97710.34
2023-03-11T11:39:51.581Z,97711.59
2023-03-11T11:42:57.574Z,97712.16
2023-03-11T11:46:03.814Z,97714.03
2023-03-11T11:49:14.254Z,97707.25
2023-03-11T11:52:18.588Z,97701.91
2023-03-11T11:55:24.258Z,97701.25
2023-03-11T11:58:28.627Z,97699.41
2023-03-11T12:01:36.516Z,97683.16
2023-03-11T12:04:49.285Z,97672.84
2023-03-11T12:07:58.166Z,97671.22
2023-03-11T12:11:02.669Z,97657.03
2023-03-11T12:14:12.001Z,97642.06
2023-03-11T12:17:17.992Z,97623.59
2023-03-11T12:20:34.316Z,97622.75
2023-03-11T12:23:42.670Z,97621.28
2023-03-11T12:26:49.610Z,97616.97
2023-03-11T12:29:59.312Z,97621.94
2023-03-11T12:33:03.940Z,97613.94
2023-03-11T12:36:21.962Z,97609.59
2023-03-11T12:39:27.240Z,97606.50
2023-03-11T12:42:40.059Z,97602.59
2023-03-11T12:45:53.545Z,97604.22
2023-03-11T12:49:07.899Z,97589.66
2023-03-11T12:52:21.151Z,97578.53
2023-03-11T12:55:34.134Z,97575.72
2023-03-11T12:58:56.059Z,97581.25
2023-03-11T13:02:05.724Z,97576.38
2023-03-11T13:05:16.058Z,97566.06
2023-03-11T13:08:20.873Z,97568.13
2023-03-11T13:11:38.516Z,97556.81
2023-03-11T13:14:44.158Z,97556.81
2023-03-11T13:18:02.559Z,97541.84
2023-03-11T13:21:05.813Z,97535.56
2023-03-11T13:24:25.936Z,97539.00
2023-03-11T13:27:41.674Z,97543.06
2023-03-11T13:30:47.965Z,97511.06
2023-03-11T13:33:53.248Z,97518.03
2023-03-11T13:37:10.808Z,97509.00
2023-03-11T13:40:19.139Z,97510.22
2023-03-11T13:43:23.245Z,97506.16
2023-03-11T13:46:29.841Z,97495.28
2023-03-11T13:49:39.592Z,97487.66
2023-03-11T13:52:47.743Z,97493.41
2023-03-11T13:55:51.269Z,97487.44
2023-03-11T13:58:56.209Z,97476.78
2023-03-11T14:02:00.394Z,97476.78
2023-03-11T14:05:07.066Z,97479.22
2023-03-11T14:08:13.564Z,97472.25
2023-03-11T14:11:17.975Z,97473.06
2023-03-11T14:14:35.684Z,97480.63
2023-03-11T14:17:38.482Z,97469.78
2023-03-11T14:20:53.367Z,97468.31
2023-03-11T14:23:56.816Z,97469.97
2023-03-11T14:27:01.339Z,97454.16
2023-03-11T14:30:04.305Z,97469.16
2023-03-11T14:33:07.863Z,97464.06
2023-03-11T14:36:15.812Z,97465.13
2023-03-11T14:39:26.261Z,97457.69
2023-03-11T14:42:30.422Z,97459.72
2023-03-11T14:45:34.032Z,97466.50
2023-03-11T14:48:38.389Z,97461.22
2023-03-11T14:51:42.802Z,97457.28
2023-03-11T14:54:46.819Z,97462.41
2023-03-11T14:57:51.196Z,97454.41
2023-03-11T15:00:59.465Z,97459.53
2023-03-11T15:04:08.166Z,97458.28
2023-03-11T15:07:12.285Z,97462.16
2023-03-11T15:10:16.396Z,97452.75
2023-03-11T15:13:19.123Z,97446.63
2023-03-11T15:16:31.412Z,97449.91
2023-03-11T15:19:35.559Z,97444.97
2023-03-11T15:22:41.007Z,97454.84
2023-03-11T15:25:49.913Z,97456.88
2023-03-11T15:28:57.054Z,97453.59
2023-03-11T15:32:02.004Z,97448.25
2023-03-11T15:35:13.378Z,97449.06
2023-03-11T15:38:23.695Z,97459.31
2023-03-11T15:41:26.532Z,97458.31
2023-03-11T15:44:30.994Z,97458.16
2023-03-11T15:47:36.003Z,97459.56
2023-03-11T15:50:53.489Z,97453.63
2023-03-11T15:53:58.371Z,97440.56
2023-03-11T15:57:02.060Z,97439.22
2023-03-11T16:00:06.346Z,97448.06
2023-03-11T16:03:12.146Z,97444.16
2023-03-11T16:06:14.930Z,97452.56
2023-03-11T16:09:21.150Z,97453.81
2023-03-11T16:12:24.936Z,97451.31
2023-03-11T16:15:29.800Z,97452.34
2023-03-11T16:18:33.796Z,97450.69
2023-03-11T16:21:40.523Z,97443.72
2023-03-11T16:24:46.691Z,97435.50
2023-03-11T16:27:50.743Z,97426.88
2023-03-11T16:30:53.542Z,97440.44
2023-03-11T16:33:56.406Z,97445.19
2023-03-11T16:36:59.188Z,97442.13
2023-03-11T16:40:07.289Z,97438.66
2023-03-11T16:43:11.487Z,97435.59
2023-03-11T16:46:14.343Z,97431.75
2023-03-11T16:49:17.190Z,97416.16
2023-03-11T16:52:23.603Z,97403.63
2023-03-11T16:55:28.400Z,97408.56
2023-03-11T16:58:31.188Z,97393.56
2023-03-11T17:01:39.257Z,97385.94
2023-03-11T17:04:42.150Z,97383.69
2023-03-11T17:07:44.955Z,97385.13
2023-03-11T17:10:51.589Z,97379.59
2023-03-11T17:13:58.623Z,97375.25
2023-03-11T17:17:09.245Z,97368.50
2023-03-11T17:20:12.800Z,97370.78
2023-03-11T17:23:15.566Z,97363.75
2023-03-11T17:26:20.213Z,97365.00
2023-03-11T17:29:23.053Z,97348.16
2023-03-11T17:32:27.613Z,97352.06
2023-03-11T17:35:31.694Z,97347.13
2023-03-11T17:38:34.700Z,97338.72
2023-03-11T17:41:38.805Z,97333.97
2023-03-11T17:44:51.491Z,97331.72
2023-03-11T17:47:54.752Z,97325.97
2023-03-11T17:50:59.422Z,97322.28
2023-03-11T17:54:02.477Z,97312.00
2023-03-11T17:57:06.894Z,97306.69
2023-03-11T18:00:14.299Z,97306.47
2023-03-11T18:03:17.117Z,97301.13
2023-03-11T18:06:20.417Z,97289.00
2023-03-11T18:09:23.330Z,97290.84
2023-03-11T18:12:29.620Z,97281.81
2023-03-11T18:15:32.339Z,97288.16
2023-03-11T18:18:35.969Z,97279.75
2023-03-11T18:21:40.404Z,97284.28
2023-03-11T18:24:43.195Z,97290.44
2023-03-11T18:27:47.311Z,97283.69
2023-03-11T18:30:50.097Z,97279.56
2023-03-11T18:33:57.939Z,97284.28
2023-03-11T18:37:00.778Z,97282.66
2023-03-11T18:40:05.688Z,97278.13
2023-03-11T18:43:13.332Z,97281.78
2023-03-11T18:46:16.850Z,97280.56
2023-03-11T18:49:20.814Z,97276.25
2023-03-11T18:52:23.747Z,97275.03
2023-03-11T18:55:26.595Z,97292.25
2023-03-11T18:58:30.817Z,97281.16
2023-03-11T19:01:34.596Z,97281.78
2023-03-11T19:04:37.477Z,97269.88
2023-03-11T19:07:40.300Z,97268.44
2023-03-11T19:10:43.549Z,97258.59
2023-03-11T19:13:48.207Z,97267.41
2023-03-11T19:16:51.266Z,97260.44
2023-03-11T19:19:55.017Z,97260.66
2023-03-11T19:23:00.366Z,97257.16
2023-03-11T19:26:03.759Z,97247.31
2023-03-11T19:29:08.236Z,97244.63
2023-03-11T19:32:11.044Z,97245.47
2023-03-11T19:35:16.856Z,97244.81
2023-03-11T19:38:23.256Z,97248.31
2023-03-11T19:41:26.169Z,97243.81
2023-03-11T19:44:30.281Z,97238.47
2023-03-11T19:47:33.079Z,97242.78
2023-03-11T19:50:35.825Z,97230.66
2023-03-11T19:53:40.533Z,97233.97
2023-03-11T19:56:43.837Z,97222.47
2023-03-11T19:59:48.025Z,97226.78
2023-03-11T20:02:50.870Z,97208.47
2023-03-11T20:05:56.882Z,97206.03
2023-03-11T20:08:59.799Z,97199.66
2023-03-11T20:12:02.623Z,97191.88
2023-03-11T20:15:08.581Z,97189.19
2023-03-11T20:18:11.427Z,97178.91
2023-03-11T20:21:14.409Z,97169.47
2023-03-11T20:24:19.223Z,97167.03
2023-03-11T20:27:22.075Z,97168.44
2023-03-11T20:30:26.329Z,97167.41
2023-03-11T20:33:29.216Z,97161.25
2023-03-11T20:36:33.215Z,97166.81
2023-03-11T20:39:36.164Z,97151.84
2023-03-11T20:42:40.002Z,97149.38
2023-03-11T20:45:44.238Z,97149.38
2023-03-11T20:48:47.088Z,97151.63
2023-03-11T20:51:52.568Z,97152.22
2023-03-11T20:54:56.264Z,97132.94
2023-03-11T20:57:59.181Z,97141.38
2023-03-11T21:01:13.426Z,97138.03
2023-03-11T21:04:19.717Z,97130.69
2023-03-11T21:07:22.501Z,97133.53
2023-03-11T21:10:25.346Z,97129.47
2023-03-11T21:13:28.193Z,97137.06
2023-03-11T21:16:32.594Z,97130.03
2023-03-11T21:19:35.430Z,97125.50
2023-03-11T21:22:38.420Z,97119.78
2023-03-11T21:25:43.995Z,97117.44
2023-03-11T21:28:47.896Z,97117.84
2023-03-11T21:31:52.168Z,97110.81
2023-03-11T21:34:55.710Z,97116.38
2023-03-11T21:37:58.628Z,97123.94
2023-03-11T21:41:08.050Z,97121.06
2023-03-11T21:44:12.788Z,97122.25
2023-03-11T21:47:17.058Z,97125.09
2023-03-11T21:50:19.989Z,97128.00
2023-03-11T21:53:22.936Z,97129.63
2023-03-11T21:56:25.771Z,97123.88
2023-03-11T21:59:28.572Z,97120.31
2023-03-11T22:02:34.808Z,97104.28
2023-03-11T22:05:37.732Z,97109.59
2023-03-11T22:08:42.864Z,97105.28
2023-03-11T22:11:45.812Z,97112.50
2023-03-11T22:14:48.902Z,97106.34
2023-03-11T22:17:53.109Z,97119.25
2023-03-11T22:20:58.375Z,97128.53
2023-03-11T22:24:01.216Z,97114.13
2023-03-11T22:27:04.006Z,97102.03
2023-03-11T22:30:08.481Z,97098.56
2023-03-11T22:33:12.584Z,97122.41
2023-03-11T22:36:15.531Z,97109.25
2023-03-11T22:39:20.191Z,97111.34
2023-03-11T22:42:22.938Z,97095.94
2023-03-11T22:45:25.837Z,97099.88
2023-03-11T22:48:30.173Z,97096.34
2023-03-11T22:51:35.185Z,97097.22
2023-03-11T22:54:41.034Z,97092.47
2023-03-11T22:57:43.837Z,97085.06
2023-03-11T23:00:51.691Z,97093.50
2023-03-11T23:03:55.892Z,97092.06
2023-03-11T23:06:58.650Z,97106.06
2023-03-11T23:10:01.565Z,97088.38
2023-03-11T23:13:04.440Z,97104.81
2023-03-11T23:16:09.702Z,97101.75
2023-03-11T23:19:14.701Z,97099.47
2023-03-11T23:22:20.165Z,97093.75
2023-03-11T23:25:23.035Z,97094.41
2023-03-11T23:28:25.783Z,97091.72
2023-03-11T23:31:30.437Z,97098.31
2023-03-11T23:34:34.699Z,97081.81
2023-03-11T23:37:39.262Z,97076.06
2023-03-11T23:40:42.625Z,97059.66
2023-03-11T23:43:45.415Z,97070.34
2023-03-11T23:46:48.247Z,97056.78
2023-03-11T23:49:52.343Z,97045.72
2023-03-11T23:52:55.132Z,97052.28
2023-03-11T23:55:57.948Z,97047.97
2023-03-11T23:59:03.387Z,97048.78
